createdAt,value
2023-03-31T00:02:24.683Z,100958.50
2023-03-31T00:04:55.008Z,100967.88
2023-03-31T00:07:25.140Z,100964.94
2023-03-31T00:10:10.306Z,100974.50
2023-03-31T00:12:48.023Z,100984.88
2023-03-31T00:15:18.604Z,100982.84
2023-03-31T00:17:49.080Z,100984.31
2023-03-31T00:20:19.253Z,100989.53
2023-03-31T00:22:49.500Z,100992.81
2023-03-31T00:25:19.830Z,100990.75
2023-03-31T00:27:51.783Z,100992.41
2023-03-31T00:30:22.156Z,100994.91
2023-03-31T00:32:52.860Z,100998.25
2023-03-31T00:35:23.835Z,101001.53
2023-03-31T00:37:55.457Z,101009.47
2023-03-31T00:40:25.688Z,101011.09
2023-03-31T00:42:55.914Z,101009.03
2023-03-31T00:45:28.689Z,101013.38
2023-03-31T00:48:05.759Z,101023.19
2023-03-31T00:50:42.685Z,101030.25
2023-03-31T00:53:15.416Z,101036.91
2023-03-31T00:55:49.412Z,101047.50
2023-03-31T00:58:24.375Z,101056.66
2023-03-31T01:00:54.765Z,101060.59
2023-03-31T01:03:26.782Z,101056.88
2023-03-31T01:05:59.436Z,101053.13
2023-03-31T01:08:30.400Z,101056.47
2023-03-31T01:11:05.651Z,101054.34
2023-03-31T01:13:40.042Z,101060.63
2023-03-31T01:16:12.194Z,101061.22
2023-03-31T01:18:47.779Z,101061.84
2023-03-31T01:21:39.038Z,101064.34
2023-03-31T01:24:11.984Z,101073.94
2023-03-31T01:27:00.608Z,101073.94
2023-03-31T01:29:42.859Z,101085.97
2023-03-31T01:32:13.577Z,101077.66
2023-03-31T01:35:02.148Z,101078.50
2023-03-31T01:37:58.234Z,101083.47
2023-03-31T01:40:28.434Z,101084.94
2023-03-31T01:43:07.729Z,101083.91
2023-03-31T01:45:37.896Z,101088.06
2023-03-31T01:48:19.661Z,101083.28
2023-03-31T01:51:00.801Z,101085.75
2023-03-31T01:53:35.452Z,101082.63
2023-03-31T01:56:12.120Z,101087.84
2023-03-31T01:58:51.205Z,101084.09
2023-03-31T02:01:22.411Z,101087.22
2023-03-31T02:04:12.711Z,101085.97
2023-03-31T02:06:45.242Z,101094.69
2023-03-31T02:09:18.451Z,101098.00
2023-03-31T02:11:50.126Z,101098.66
2023-03-31T02:14:23.588Z,101099.28
2023-03-31T02:16:59.734Z,101097.16
2023-03-31T02:19:33.112Z,101102.16
2023-03-31T02:22:05.112Z,101091.94
2023-03-31T02:24:36.504Z,101086.09
2023-03-31T02:27:10.073Z,101085.06
2023-03-31T02:29:40.611Z,101094.63
2023-03-31T02:32:14.950Z,101101.47
2023-03-31T02:34:45.350Z,101096.69
2023-03-31T02:37:15.875Z,101108.16
2023-03-31T02:39:50.031Z,101104.19
2023-03-31T02:42:21.022Z,101106.66
2023-03-31T02:44:53.320Z,101110.81
2023-03-31T02:47:23.829Z,101098.72
2023-03-31T02:49:55.799Z,101104.81
2023-03-31T02:52:35.074Z,101097.31
2023-03-31T02:55:18.215Z,101096.88
2023-03-31T02:57:48.728Z,101092.06
2023-03-31T03:00:26.063Z,101097.06
2023-03-31T03:03:07.088Z,101095.81
2023-03-31T03:05:40.242Z,101083.69
2023-03-31T03:08:38.346Z,101073.25
2023-03-31T03:11:24.521Z,101072.22
2023-03-31T03:14:02.700Z,101078.25
2023-03-31T03:16:37.044Z,101075.94
2023-03-31T03:19:08.346Z,101074.66
2023-03-31T03:21:38.516Z,101065.28
2023-03-31T03:24:08.807Z,101067.75
2023-03-31T03:26:38.832Z,101061.91
2023-03-31T03:29:09.209Z,101065.03
2023-03-31T03:31:39.586Z,101062.69
2023-03-31T03:34:11.135Z,101059.78
2023-03-31T03:36:42.089Z,101063.06
2023-03-31T03:39:12.160Z,101061.81
2023-03-31T03:41:42.351Z,101057.84
2023-03-31T03:44:12.363Z,101054.69
2023-03-31T03:46:42.890Z,101056.97
2023-03-31T03:49:13.543Z,101053.25
2023-03-31T03:51:43.635Z,101055.50
2023-03-31T03:54:13.933Z,101064.25
2023-03-31T03:56:44.085Z,101056.72
2023-03-31T03:59:14.436Z,101047.09
2023-03-31T04:01:44.860Z,101050.44
2023-03-31T04:04:14.897Z,101049.16
2023-03-31T04:06:45.103Z,101033.28
2023-03-31T04:09:15.673Z,101034.94
2023-03-31T04:11:45.749Z,101028.47
2023-03-31T04:14:15.882Z,101018.22
2023-03-31T04:16:48.152Z,101018.81
2023-03-31T04:19:19.249Z,101012.97
2023-03-31T04:21:52.150Z,101008.97
2023-03-31T04:24:23.207Z,100999.56
2023-03-31T04:26:53.794Z,101003.91
2023-03-31T04:29:28.075Z,100999.13
2023-03-31T04:32:01.415Z,100988.06
2023-03-31T04:34:38.040Z,100989.50
2023-03-31T04:37:12.223Z,100980.91
2023-03-31T04:39:42.910Z,100987.75
2023-03-31T04:42:12.982Z,100972.31
2023-03-31T04:44:43.112Z,100977.50
2023-03-31T04:47:13.154Z,100968.31
2023-03-31T04:49:43.331Z,100968.09
2023-03-31T04:52:13.348Z,100954.53
2023-03-31T04:54:43.420Z,100951.59
2023-03-31T04:57:13.517Z,100944.06
2023-03-31T04:59:43.588Z,100933.00
2023-03-31T05:02:13.714Z,100941.13
2023-03-31T05:04:43.790Z,100930.91
2023-03-31T05:07:13.812Z,100920.66
2023-03-31T05:09:44.042Z,100918.75
2023-03-31T05:12:14.665Z,100911.22
2023-03-31T05:14:44.754Z,100911.00
2023-03-31T05:17:14.896Z,100908.88
2023-03-31T05:19:45.005Z,100906.75
2023-03-31T05:22:15.856Z,100903.63
2023-03-31T05:24:45.886Z,100893.34
2023-03-31T05:27:15.987Z,100896.66
2023-03-31T05:29:46.097Z,100890.78
2023-03-31T05:32:16.729Z,100883.22
2023-03-31T05:34:48.866Z,100875.69
2023-03-31T05:37:20.674Z,100879.00
2023-03-31T05:39:51.067Z,100872.28
2023-03-31T05:42:21.843Z,100864.75
2023-03-31T05:44:51.976Z,100873.50
2023-03-31T05:47:22.473Z,100859.66
2023-03-31T05:49:52.682Z,100858.38
2023-03-31T05:52:22.955Z,100857.09
2023-03-31T05:54:53.198Z,100851.19
2023-03-31T05:57:23.605Z,100843.66
2023-03-31T05:59:53.759Z,100842.38
2023-03-31T06:02:24.084Z,100824.81
2023-03-31T06:04:54.674Z,100824.34
2023-03-31T06:07:26.367Z,100822.00
2023-03-31T06:09:57.007Z,100816.91
2023-03-31T06:12:27.664Z,100814.81
2023-03-31T06:14:57.737Z,100811.63
2023-03-31T06:17:27.930Z,100805.72
2023-03-31T06:19:58.270Z,100788.94
2023-03-31T06:22:28.906Z,100783.06
2023-03-31T06:24:59.100Z,100777.16
2023-03-31T06:27:29.689Z,100771.25
2023-03-31T06:29:59.710Z,100771.59
2023-03-31T06:32:29.832Z,100766.50
2023-03-31T06:34:59.972Z,100755.16
2023-03-31T06:37:30.178Z,100743.84
2023-03-31T06:40:00.396Z,100742.31
2023-03-31T06:42:30.456Z,100734.50
2023-03-31T06:45:00.671Z,100733.81
2023-03-31T06:47:31.407Z,100726.00
2023-03-31T06:50:01.743Z,100723.66
2023-03-31T06:52:32.840Z,100709.59
2023-03-31T06:55:03.259Z,100695.25
2023-03-31T06:57:35.426Z,100693.94
2023-03-31T07:00:07.039Z,100661.16
2023-03-31T07:02:38.416Z,100690.03
2023-03-31T07:05:08.968Z,100678.69
2023-03-31T07:07:39.117Z,100674.66
2023-03-31T07:10:09.477Z,100675.25
2023-03-31T07:12:39.612Z,100665.53
2023-03-31T07:15:09.914Z,100656.31
2023-03-31T07:17:43.506Z,100644.09
2023-03-31T07:20:17.527Z,100648.00
2023-03-31T07:22:48.331Z,100649.41
2023-03-31T07:25:19.356Z,100644.56
2023-03-31T07:27:50.373Z,100637.56
2023-03-31T07:30:21.583Z,100642.53
2023-03-31T07:32:52.692Z,100642.84
2023-03-31T07:35:24.392Z,100632.34
2023-03-31T07:37:54.607Z,100631.84
2023-03-31T07:40:26.852Z,100624.25
2023-03-31T07:42:57.268Z,100619.16
2023-03-31T07:45:28.281Z,100617.84
2023-03-31T07:47:58.551Z,100618.97
2023-03-31T07:50:29.413Z,100613.03
2023-03-31T07:53:01.153Z,100608.75
2023-03-31T07:55:31.859Z,100606.63
2023-03-31T07:58:02.479Z,100606.94
2023-03-31T08:00:33.056Z,100608.34
2023-03-31T08:03:03.248Z,100570.81
2023-03-31T08:05:33.687Z,100593.75
2023-03-31T08:08:03.781Z,100596.59
2023-03-31T08:10:33.881Z,100585.19
2023-03-31T08:13:03.954Z,100582.78
2023-03-31T08:15:34.017Z,100577.66
2023-03-31T08:18:05.107Z,100584.25
2023-03-31T08:20:35.188Z,100579.41
2023-03-31T08:23:07.206Z,100581.34
2023-03-31T08:25:37.616Z,100584.97
2023-03-31T08:28:08.338Z,100577.38
2023-03-31T08:30:42.490Z,100577.47
2023-03-31T08:33:15.762Z,100575.88
2023-03-31T08:35:46.025Z,100577.03
2023-03-31T08:38:16.171Z,100575.69
2023-03-31T08:40:46.341Z,100561.59
2023-03-31T08:43:20.806Z,100560.84
2023-03-31T08:45:51.741Z,100564.94
2023-03-31T08:48:30.740Z,100556.03
2023-03-31T08:51:05.593Z,100558.22
2023-03-31T08:53:45.529Z,100547.63
2023-03-31T08:56:21.000Z,100545.78
2023-03-31T08:58:52.548Z,100541.50
2023-03-31T09:01:52.196Z,100534.97
2023-03-31T09:04:31.073Z,100535.03
2023-03-31T09:07:19.474Z,100536.16
2023-03-31T09:10:05.314Z,100543.81
2023-03-31T09:12:42.093Z,100539.50
2023-03-31T09:15:19.056Z,100539.78
2023-03-31T09:17:52.930Z,100534.72
2023-03-31T09:20:33.438Z,100535.81
2023-03-31T09:23:07.128Z,100533.16
2023-03-31T09:25:40.019Z,100536.97
2023-03-31T09:28:21.645Z,100535.34
2023-03-31T09:30:52.409Z,100535.94
2023-03-31T09:33:33.426Z,100537.31
2023-03-31T09:36:04.791Z,100536.22
2023-03-31T09:38:35.217Z,100538.72
2023-03-31T09:41:06.824Z,100540.34
2023-03-31T09:43:37.141Z,100537.63
2023-03-31T09:46:15.387Z,100538.19
2023-03-31T09:48:52.181Z,100537.38
2023-03-31T09:51:28.063Z,100541.97
2023-03-31T09:54:00.892Z,100552.88
2023-03-31T09:56:51.748Z,100556.97
2023-03-31T09:59:31.727Z,100558.84
2023-03-31T10:02:04.506Z,100556.13
2023-03-31T10:04:36.510Z,100565.66
2023-03-31T10:07:06.938Z,100564.84
2023-03-31T10:09:40.233Z,100571.38
2023-03-31T10:12:17.705Z,100560.72
2023-03-31T10:14:51.981Z,100565.34
2023-03-31T10:17:24.037Z,100564.22
2023-03-31T10:19:55.928Z,100568.03
2023-03-31T10:22:26.143Z,100573.47
2023-03-31T10:24:56.745Z,100570.19
2023-03-31T10:27:28.692Z,100574.00
2023-03-31T10:30:06.830Z,100582.69
2023-03-31T10:32:42.272Z,100593.84
2023-03-31T10:35:26.704Z,100592.44
2023-03-31T10:37:58.761Z,100594.00
2023-03-31T10:40:30.013Z,100604.91
2023-03-31T10:43:12.402Z,100603.78
2023-03-31T10:45:49.207Z,100607.03
2023-03-31T10:48:31.464Z,100621.97
2023-03-31T10:51:17.000Z,100630.91
2023-03-31T10:53:51.119Z,100640.19
2023-03-31T10:56:30.194Z,100646.13
2023-03-31T10:59:07.744Z,100654.53
2023-03-31T11:01:57.776Z,100657.50
2023-03-31T11:04:48.210Z,100654.75
2023-03-31T11:07:34.988Z,100659.63
2023-03-31T11:10:23.567Z,100672.94
2023-03-31T11:13:09.965Z,100675.06
2023-03-31T11:15:40.127Z,100676.63
2023-03-31T11:18:19.858Z,100684.25
2023-03-31T11:20:56.279Z,100692.06
2023-03-31T11:23:46.369Z,100698.00
2023-03-31T11:26:17.090Z,100692.22
2023-03-31T11:29:01.333Z,100692.47
2023-03-31T11:31:35.658Z,100699.50
2023-03-31T11:34:34.679Z,100698.38
2023-03-31T11:37:21.050Z,100702.63
2023-03-31T11:39:57.040Z,100705.28
2023-03-31T11:42:34.598Z,100718.88
2023-03-31T11:45:15.863Z,100725.91
2023-03-31T11:47:48.480Z,100730.19
2023-03-31T11:50:21.359Z,100726.91
2023-03-31T11:53:14.258Z,100732.00
2023-03-31T11:55:45.198Z,100737.94
2023-03-31T11:58:15.298Z,100737.63
2023-03-31T12:01:03.161Z,100743.56
2023-03-31T12:03:51.917Z,100744.06
2023-03-31T12:06:24.116Z,100753.72
2023-03-31T12:08:54.417Z,100768.91
2023-03-31T12:11:42.909Z,100778.13
2023-03-31T12:14:28.115Z,100778.63
2023-03-31T12:17:02.523Z,100784.56
2023-03-31T12:19:47.603Z,100795.69
2023-03-31T12:22:23.668Z,100789.06
2023-03-31T12:24:54.575Z,100785.75
2023-03-31T12:27:29.314Z,100803.16
2023-03-31T12:30:02.177Z,100799.50
2023-03-31T12:32:34.861Z,100804.38
2023-03-31T12:35:12.881Z,100802.13
2023-03-31T12:37:49.205Z,100827.69
2023-03-31T12:40:19.344Z,100839.06
2023-03-31T12:43:06.805Z,100834.91
2023-03-31T12:45:52.603Z,100837.31
2023-03-31T12:48:28.712Z,100839.44
2023-03-31T12:50:58.755Z,100843.69
2023-03-31T12:53:37.845Z,100844.75
2023-03-31T12:56:08.356Z,100861.53
2023-03-31T12:58:38.672Z,100859.84
2023-03-31T13:01:15.977Z,100862.47
2023-03-31T13:03:46.858Z,100860.81
2023-03-31T13:06:32.627Z,100868.41
2023-03-31T13:09:09.846Z,100869.94
2023-03-31T13:11:40.034Z,100875.63
2023-03-31T13:14:19.385Z,100880.69
2023-03-31T13:16:52.110Z,100881.16
2023-03-31T13:19:32.724Z,100877.84
2023-03-31T13:22:04.681Z,100884.56
2023-03-31T13:24:36.467Z,100889.66
2023-03-31T13:27:25.100Z,100893.47
2023-03-31T13:29:55.337Z,100894.50
2023-03-31T13:32:27.636Z,100892.25
2023-03-31T13:35:05.092Z,100897.13
2023-03-31T13:37:46.390Z,100901.13
2023-03-31T13:40:31.975Z,100895.91
2023-03-31T13:43:28.686Z,100902.66
2023-03-31T13:46:11.908Z,100903.72
2023-03-31T13:48:57.859Z,100897.94
2023-03-31T13:51:34.377Z,100900.06
2023-03-31T13:54:05.078Z,100867.75
2023-03-31T13:56:41.036Z,100896.97
2023-03-31T13:59:22.489Z,100897.19
2023-03-31T14:02:11.624Z,100899.28
2023-03-31T14:04:49.790Z,100896.00
2023-03-31T14:07:23.577Z,100909.59
2023-03-31T14:09:55.550Z,100907.31
2023-03-31T14:12:40.007Z,100914.66
2023-03-31T14:15:32.924Z,100915.94
2023-03-31T14:18:04.188Z,100917.00
2023-03-31T14:20:43.334Z,100928.09
2023-03-31T14:23:26.121Z,100927.53
2023-03-31T14:26:09.185Z,100923.38
2023-03-31T14:28:39.950Z,100924.41
2023-03-31T14:31:24.505Z,100938.25
2023-03-31T14:34:14.596Z,100936.59
2023-03-31T14:37:11.400Z,100936.81
2023-03-31T14:40:13.555Z,100937.03
2023-03-31T14:42:51.002Z,100930.19
2023-03-31T14:45:26.794Z,100933.97
2023-03-31T14:48:01.263Z,100944.00
2023-03-31T14:50:33.991Z,100945.28
2023-03-31T14:53:06.205Z,100954.50
2023-03-31T14:55:54.444Z,100950.13
2023-03-31T14:58:30.417Z,100954.97
2023-03-31T15:01:01.471Z,100957.69
2023-03-31T15:03:32.172Z,100966.88
2023-03-31T15:06:03.869Z,100975.03
2023-03-31T15:08:35.804Z,100977.97
2023-03-31T15:11:13.129Z,100973.84
2023-03-31T15:14:00.562Z,100971.13
2023-03-31T15:16:45.800Z,100971.34
2023-03-31T15:19:24.604Z,100968.25
2023-03-31T15:21:57.952Z,100977.22
2023-03-31T15:24:28.331Z,100970.97
2023-03-31T15:27:04.882Z,100966.00
2023-03-31T15:29:49.960Z,100971.44
2023-03-31T15:32:20.411Z,100964.31
2023-03-31T15:34:52.679Z,100961.84
2023-03-31T15:37:29.250Z,100961.00
2023-03-31T15:40:00.382Z,100960.16
2023-03-31T15:42:30.962Z,100958.50
2023-03-31T15:45:19.860Z,100963.13
2023-03-31T15:47:55.383Z,100956.03
2023-03-31T15:50:26.298Z,100955.19
2023-03-31T15:52:59.405Z,100959.19
2023-03-31T15:58:18.289Z,100948.56
2023-03-31T16:00:53.792Z,100945.03
2023-03-31T16:03:31.767Z,100957.78
2023-03-31T16:06:04.281Z,100956.94
2023-03-31T16:08:34.770Z,100955.28
2023-03-31T16:11:10.066Z,100954.22
2023-03-31T16:13:42.610Z,100952.56
2023-03-31T16:16:15.332Z,100954.47
2023-03-31T16:18:51.612Z,100950.31
2023-03-31T16:21:24.701Z,100942.78
2023-03-31T16:23:57.777Z,100941.09
2023-03-31T16:26:29.841Z,100944.88
2023-03-31T16:29:02.577Z,100942.19
2023-03-31T16:31:36.096Z,100938.63
2023-03-31T16:34:08.336Z,100932.38
2023-03-31T16:36:50.896Z,100929.88
2023-03-31T16:39:21.034Z,100934.50
2023-03-31T16:41:51.353Z,100933.66
2023-03-31T16:44:21.863Z,100931.16
2023-03-31T16:46:52.456Z,100931.16
2023-03-31T16:49:22.855Z,100924.09
2023-03-31T16:51:54.078Z,100913.22
2023-03-31T16:54:24.273Z,100913.44
2023-03-31T16:56:54.727Z,100910.97
2023-03-31T16:59:25.196Z,100911.81
2023-03-31T17:01:55.435Z,100904.13
2023-03-31T17:04:25.716Z,100901.63
2023-03-31T17:06:55.944Z,100901.63
2023-03-31T17:09:26.105Z,100898.31
2023-03-31T17:11:56.430Z,100898.31
2023-03-31T17:14:26.702Z,100895.00
2023-03-31T17:16:56.922Z,100893.34
2023-03-31T17:19:29.232Z,100897.13
2023-03-31T17:22:03.260Z,100900.91
2023-03-31T17:24:33.323Z,100898.41
2023-03-31T17:27:03.640Z,100895.91
2023-03-31T17:29:33.917Z,100888.81
2023-03-31T17:32:04.660Z,100889.91
2023-03-31T17:34:34.841Z,100886.38
2023-03-31T17:37:05.780Z,100890.94
2023-03-31T17:39:36.016Z,100885.50
2023-03-31T17:42:06.747Z,100880.53
2023-03-31T17:44:36.927Z,100878.91
2023-03-31T17:47:07.247Z,100860.97
2023-03-31T17:49:37.340Z,100862.00
2023-03-31T17:52:07.497Z,100857.66
2023-03-31T17:54:37.743Z,100861.41
2023-03-31T17:57:08.220Z,100848.06
2023-03-31T17:59:39.031Z,100838.06
2023-03-31T18:02:09.557Z,100823.06
2023-03-31T18:04:39.785Z,100825.78
2023-03-31T18:07:09.844Z,100814.28
2023-03-31T18:09:40.978Z,100809.09
2023-03-31T18:12:11.186Z,100801.19
2023-03-31T18:14:41.877Z,100810.13
2023-03-31T18:17:16.182Z,100813.91
2023-03-31T18:19:46.459Z,100811.44
2023-03-31T18:22:16.567Z,100808.13
2023-03-31T18:24:47.241Z,100814.38
2023-03-31T18:27:17.466Z,100807.31
2023-03-31T18:29:47.543Z,100804.00
2023-03-31T18:32:17.832Z,100798.56
2023-03-31T18:34:48.586Z,100801.50
2023-03-31T18:37:18.595Z,100799.03
2023-03-31T18:39:49.176Z,100793.59
2023-03-31T18:42:21.155Z,100802.78
2023-03-31T18:44:51.358Z,100794.06
2023-03-31T18:47:21.906Z,100794.06
2023-03-31T18:49:55.276Z,100789.91
2023-03-31T18:52:25.538Z,100782.00
2023-03-31T18:54:55.639Z,100793.66
2023-03-31T18:57:25.775Z,100794.94
2023-03-31T18:59:55.934Z,100790.38
2023-03-31T19:02:26.176Z,100789.53
2023-03-31T19:04:56.328Z,100788.94
2023-03-31T19:07:26.379Z,100789.97
2023-03-31T19:09:56.652Z,100782.91
2023-03-31T19:12:27.096Z,100780.19
2023-03-31T19:14:57.406Z,100781.28
2023-03-31T19:17:27.764Z,100772.53
2023-03-31T19:19:58.203Z,100769.00
2023-03-31T19:22:31.186Z,100770.88
2023-03-31T19:25:01.749Z,100765.66
2023-03-31T19:27:32.959Z,100760.47
2023-03-31T19:30:03.586Z,100749.63
2023-03-31T19:32:33.617Z,100758.81
2023-03-31T19:35:03.743Z,100764.25
2023-03-31T19:37:33.835Z,100761.78
2023-03-31T19:40:04.718Z,100766.34
2023-03-31T19:42:35.063Z,100762.00
2023-03-31T19:45:05.301Z,100768.47
2023-03-31T19:47:35.882Z,100757.84
2023-03-31T19:50:06.277Z,100759.72
2023-03-31T19:52:37.528Z,100761.84
2023-03-31T19:55:07.720Z,100756.41
2023-03-31T19:57:38.031Z,100759.38
2023-03-31T20:00:09.425Z,100753.09
2023-03-31T20:02:40.030Z,100752.28
2023-03-31T20:05:10.595Z,100754.16
2023-03-31T20:07:40.621Z,100757.13
2023-03-31T20:10:13.072Z,100759.84
2023-03-31T20:12:43.523Z,100762.75
2023-03-31T20:15:13.526Z,100768.16
2023-03-31T20:17:43.602Z,100770.88
2023-03-31T20:20:14.195Z,100764.03
2023-03-31T20:22:45.040Z,100764.03
2023-03-31T20:25:15.689Z,100763.22
2023-03-31T20:27:45.760Z,100758.00
2023-03-31T20:30:16.465Z,100766.13
2023-03-31T20:32:46.598Z,100768.03
2023-03-31T20:35:16.701Z,100778.22
2023-03-31T20:37:46.745Z,100779.06
2023-03-31T20:40:17.376Z,100769.25
2023-03-31T20:42:47.894Z,100769.50
2023-03-31T20:45:17.964Z,100781.19
2023-03-31T20:47:48.800Z,100773.25
2023-03-31T20:50:19.030Z,100773.25
2023-03-31T20:52:49.520Z,100777.03
2023-03-31T20:55:19.625Z,100775.38
2023-03-31T20:57:49.728Z,100775.38
2023-03-31T21:00:20.009Z,100776.41
2023-03-31T21:02:49.979Z,100772.06
2023-03-31T21:05:20.058Z,100776.66
2023-03-31T21:07:50.774Z,100774.16
2023-03-31T21:10:20.872Z,100779.59
2023-03-31T21:12:51.299Z,100782.28
2023-03-31T21:15:21.742Z,100782.53
2023-03-31T21:17:51.881Z,100781.69
2023-03-31T21:20:22.006Z,100785.25
2023-03-31T21:22:52.072Z,100785.47
2023-03-31T21:25:22.297Z,100787.34
2023-03-31T21:27:52.982Z,100789.22
2023-03-31T21:30:23.514Z,100796.28
2023-03-31T21:32:54.235Z,100793.78
2023-03-31T21:35:24.483Z,100788.63
2023-03-31T21:37:54.754Z,100778.00
2023-03-31T21:40:25.273Z,100769.88
2023-03-31T21:42:55.384Z,100775.53
2023-03-31T21:45:28.684Z,100781.75
2023-03-31T21:47:59.439Z,100785.53
2023-03-31T21:50:29.805Z,100784.69
2023-03-31T21:53:00.963Z,100787.41
2023-03-31T21:55:31.064Z,100786.81
2023-03-31T21:58:02.035Z,100787.63
2023-03-31T22:00:32.803Z,100797.66
2023-03-31T22:03:22.180Z,100801.41
2023-03-31T22:05:54.130Z,100796.78
2023-03-31T22:08:24.164Z,100800.56
2023-03-31T22:10:55.115Z,100801.41
2023-03-31T22:13:25.752Z,100795.97
2023-03-31T22:15:56.180Z,100807.88
2023-03-31T22:18:26.877Z,100807.88
2023-03-31T22:20:58.344Z,100818.91
2023-03-31T22:23:29.111Z,100824.34
2023-03-31T22:25:59.131Z,100828.94
2023-03-31T22:28:30.303Z,100834.34
2023-03-31T22:31:00.802Z,100837.06
2023-03-31T22:33:30.851Z,100831.88
2023-03-31T22:36:00.975Z,100833.53
2023-03-31T22:38:31.897Z,100836.44
2023-03-31T22:41:02.950Z,100841.88
2023-03-31T22:43:34.003Z,100841.03
2023-03-31T22:46:05.292Z,100844.81
2023-03-31T22:48:35.992Z,100838.56
2023-03-31T22:51:10.297Z,100850.22
2023-03-31T22:53:40.389Z,100840.66
2023-03-31T22:56:12.130Z,100854.84
2023-03-31T22:58:42.208Z,100853.16
2023-03-31T23:01:16.855Z,100853.16
2023-03-31T23:03:48.165Z,100868.41
2023-03-31T23:06:18.768Z,100858.25
2023-03-31T23:08:50.381Z,100870.56
2023-03-31T23:11:20.837Z,100879.59
2023-03-31T23:13:50.951Z,100881.69
2023-03-31T23:16:23.147Z,100883.16
2023-03-31T23:18:54.701Z,100893.59
2023-03-31T23:21:26.146Z,100890.03
2023-03-31T23:23:57.899Z,100902.75
2023-03-31T23:26:29.213Z,100905.47
2023-03-31T23:28:59.853Z,100906.28
2023-03-31T23:31:30.983Z,100910.06
2023-03-31T23:34:01.362Z,100918.16
2023-03-31T23:36:32.538Z,100914.84
2023-03-31T23:39:02.548Z,100921.31
2023-03-31T23:41:33.184Z,100932.97
2023-03-31T23:44:03.629Z,100935.47
2023-03-31T23:46:34.968Z,100939.22
2023-03-31T23:49:06.268Z,100950.88
2023-03-31T23:51:36.350Z,100954.44
2023-03-31T23:54:06.349Z,100958.78
2023-03-31T23:56:36.416Z,100967.97
2023-03-31T23:59:06.443Z,100970.44
